Time;durP1;ratioP1;P1;durP2;ratioP2;P2;SDS_P1;SDS_P2;PMS_P1;PMS_P2;Temp;Humidity;BMP_temperature;BMP_pressure;BME280_temperature;BME280_humidity;BME280_pressure;Samples;Min_cycle;Max_cycle;Signal;HPM_P1;HPM_P2
2021/12/21 00:00:44;;;;;;;22.63;9.90;;;-2.00;99.90;;;;;;5159374;27;20079;-69
2021/12/21 00:03:11;;;;;;;14.82;8.15;;;-2.00;99.90;;;;;;5158001;27;20050;-70
2021/12/21 00:05:40;;;;;;;13.00;7.68;;;-2.10;99.90;;;;;;5158486;27;20080;-70
2021/12/21 00:08:10;;;;;;;14.23;8.27;;;-2.10;99.90;;;;;;5159364;27;20054;-70
2021/12/21 00:10:37;;;;;;;18.37;8.43;;;-2.10;99.90;;;;;;5158503;27;20054;-69
2021/12/21 00:13:09;;;;;;;13.25;8.40;;;-2.20;99.90;;;;;;5159531;27;20146;-69
2021/12/21 00:15:54;;;;;;;20.33;8.27;;;-2.20;99.90;;;;;;5159303;27;20107;-70
2021/12/21 00:18:30;;;;;;;16.75;8.55;;;-2.10;99.90;;;;;;5158475;27;20493;-70
2021/12/21 00:21:05;;;;;;;20.13;8.75;;;-2.10;99.90;;;;;;5142320;27;20380;-70
2021/12/21 00:23:40;;;;;;;17.27;8.45;;;-2.10;99.90;;;;;;5117579;27;20059;-70
2021/12/21 00:26:10;;;;;;;15.38;9.30;;;-2.10;99.90;;;;;;5134941;27;20089;-70
2021/12/21 00:28:45;;;;;;;19.80;10.13;;;-2.10;99.90;;;;;;5138192;27;20050;-69
2021/12/21 00:31:12;;;;;;;16.80;9.18;;;-2.10;99.90;;;;;;5137493;27;20405;-69
2021/12/21 00:33:45;;;;;;;15.20;8.68;;;-2.20;99.90;;;;;;5138162;27;20444;-69
2021/12/21 00:36:14;;;;;;;19.00;8.75;;;-2.20;99.90;;;;;;5138169;27;20051;-69
2021/12/21 00:38:41;;;;;;;16.52;8.35;;;-2.20;99.90;;;;;;5137328;27;20077;-70
2021/12/21 00:41:08;;;;;;;14.02;8.15;;;-2.20;99.90;;;;;;5137657;27;20043;-69
2021/12/21 00:43:35;;;;;;;20.20;9.40;;;-2.30;99.90;;;;;;5137928;27;20095;-70
2021/12/21 00:46:02;;;;;;;16.08;8.63;;;-2.30;99.90;;;;;;5137567;27;20054;-70
2021/12/21 00:48:31;;;;;;;17.90;9.38;;;-2.30;99.90;;;;;;5137517;27;20094;-70
2021/12/21 00:51:00;;;;;;;17.23;10.40;;;-2.40;99.90;;;;;;5137331;27;20047;-70
2021/12/21 00:53:29;;;;;;;16.92;9.25;;;-2.40;99.90;;;;;;5137406;27;20054;-69
2021/12/21 00:55:56;;;;;;;21.13;9.40;;;-2.40;99.90;;;;;;5152881;27;20565;-70
2021/12/21 00:58:23;;;;;;;17.55;9.93;;;-2.40;99.90;;;;;;5157982;27;20497;-69
2021/12/21 01:00:51;;;;;;;18.63;9.95;;;-2.30;99.90;;;;;;5157486;27;20057;-69
2021/12/21 01:03:19;;;;;;;19.30;9.82;;;-2.40;99.90;;;;;;5158267;27;20049;-69
2021/12/21 01:05:51;;;;;;;19.20;11.15;;;-2.40;99.90;;;;;;5157885;27;20129;-69
2021/12/21 01:08:22;;;;;;;19.23;10.25;;;-2.30;99.90;;;;;;5157262;27;20050;-69
2021/12/21 01:11:05;;;;;;;23.27;9.45;;;-2.30;99.90;;;;;;5158406;27;20061;-69
2021/12/21 01:13:45;;;;;;;14.55;9.55;;;-2.30;99.90;;;;;;5176149;27;20054;-69
2021/12/21 01:16:25;;;;;;;21.67;10.80;;;-2.40;99.90;;;;;;5175751;27;20103;-68
2021/12/21 01:19:06;;;;;;;15.48;8.73;;;-2.40;99.90;;;;;;5157882;27;20057;-70
2021/12/21 01:21:37;;;;;;;18.08;9.80;;;-2.40;99.90;;;;;;5157395;27;20053;-70
2021/12/21 01:24:26;;;;;;;20.98;9.00;;;-2.40;99.90;;;;;;5157970;27;20556;-71
2021/12/21 01:27:09;;;;;;;15.77;9.63;;;-2.50;99.90;;;;;;5116321;27;20135;-69
2021/12/21 01:29:44;;;;;;;15.45;9.02;;;-2.40;99.90;;;;;;5121045;27;20051;-69
2021/12/21 01:32:18;;;;;;;17.90;9.80;;;-2.50;99.90;;;;;;5136865;27;20051;-69
2021/12/21 01:34:55;;;;;;;14.18;9.05;;;-2.40;99.90;;;;;;5136424;27;20490;-68
2021/12/21 01:37:28;;;;;;;18.15;9.75;;;-2.50;99.90;;;;;;5134493;27;20132;-69
2021/12/21 01:40:03;;;;;;;17.00;8.88;;;-2.50;99.90;;;;;;5116483;27;20082;-69
2021/12/21 01:42:46;;;;;;;13.75;8.88;;;-2.50;99.90;;;;;;5115194;27;20058;-69
2021/12/21 01:50:48;;;;;;;16.83;10.00;;;-2.60;99.90;;;;;;5136442;27;20054;-69
2021/12/21 01:53:15;;;;;;;16.40;9.07;;;-2.60;99.90;;;;;;5136988;27;20344;-68
2021/12/21 01:55:42;;;;;;;18.30;8.25;;;-2.60;99.90;;;;;;5149002;27;20054;-69
2021/12/21 01:58:11;;;;;;;17.33;8.82;;;-2.60;99.90;;;;;;5157183;27;20046;-69
2021/12/21 02:00:39;;;;;;;14.93;9.40;;;-2.60;99.90;;;;;;5157054;27;20058;-68
2021/12/21 02:03:07;;;;;;;17.67;9.20;;;-2.60;99.90;;;;;;5156447;27;20095;-70
2021/12/21 02:05:34;;;;;;;17.85;9.35;;;-2.60;99.90;;;;;;5157243;27;20050;-68
2021/12/21 02:08:01;;;;;;;18.00;10.82;;;-2.70;99.90;;;;;;5157413;27;20106;-68
2021/12/21 02:10:28;;;;;;;17.83;9.63;;;-2.70;99.90;;;;;;5156819;27;20478;-69
2021/12/21 02:12:55;;;;;;;16.23;9.18;;;-2.70;99.90;;;;;;5156926;27;20082;-70
2021/12/21 02:15:25;;;;;;;17.42;9.13;;;-2.70;99.90;;;;;;5157001;27;20489;-68
2021/12/21 02:18:27;;;;;;;14.95;9.60;;;-2.70;99.90;;;;;;5156183;27;20065;-68
2021/12/21 02:20:58;;;;;;;18.25;10.35;;;-2.70;99.90;;;;;;5156310;27;20046;-68
2021/12/21 02:23:31;;;;;;;17.23;10.35;;;-2.70;99.90;;;;;;5156969;27;20565;-68
2021/12/21 02:31:28;;;;;;;19.42;11.98;;;-2.80;99.90;;;;;;5101450;28;20483;-69
2021/12/21 02:33:56;;;;;;;19.35;11.90;;;-2.70;99.90;;;;;;5115689;27;20483;-69
2021/12/21 02:36:25;;;;;;;20.15;11.05;;;-2.80;99.90;;;;;;5141907;27;20054;-69
2021/12/21 02:38:51;;;;;;;19.85;11.63;;;-2.70;99.90;;;;;;5155851;27;20058;-69
2021/12/21 02:41:18;;;;;;;17.88;10.93;;;-2.70;99.90;;;;;;5156606;27;20118;-69
2021/12/21 02:43:45;;;;;;;13.80;9.38;;;-2.70;99.90;;;;;;5156889;27;20121;-69
2021/12/21 02:46:12;;;;;;;17.17;10.73;;;-2.70;99.90;;;;;;5155903;27;20514;-69
2021/12/21 02:48:39;;;;;;;14.10;8.98;;;-2.70;99.90;;;;;;5156319;27;20054;-69
2021/12/21 02:51:06;;;;;;;20.50;10.65;;;-2.70;99.90;;;;;;5156551;27;20050;-69
2021/12/21 02:53:34;;;;;;;16.58;10.35;;;-2.70;99.90;;;;;;5155673;27;20049;-69
2021/12/21 02:56:02;;;;;;;16.85;10.23;;;-2.70;99.90;;;;;;5139727;27;20099;-69
2021/12/21 02:58:28;;;;;;;14.90;9.57;;;-2.80;99.90;;;;;;5135185;27;20095;-70
2021/12/21 03:00:56;;;;;;;17.33;10.05;;;-2.70;99.90;;;;;;5134916;27;20102;-69
2021/12/21 03:03:26;;;;;;;16.55;9.65;;;-2.70;99.90;;;;;;5153765;27;20054;-69
2021/12/21 03:05:56;;;;;;;14.15;9.02;;;-2.70;99.90;;;;;;5132682;27;20407;-69
2021/12/21 03:08:25;;;;;;;17.87;10.03;;;-2.70;99.90;;;;;;5114931;28;20448;-69
2021/12/21 03:11:05;;;;;;;16.75;9.60;;;-2.70;99.90;;;;;;5115440;28;20403;-70
2021/12/21 03:13:54;;;;;;;15.75;9.77;;;-2.70;99.90;;;;;;5114480;28;20410;-69
2021/12/21 03:16:22;;;;;;;12.52;9.25;;;-2.80;99.90;;;;;;5114941;28;20051;-69
2021/12/21 03:18:49;;;;;;;12.57;9.35;;;-2.80;99.90;;;;;;5114678;28;20526;-69
2021/12/21 03:21:16;;;;;;;18.42;10.48;;;-2.90;99.90;;;;;;5114581;28;20104;-70
2021/12/21 03:23:43;;;;;;;15.13;10.10;;;-2.90;99.90;;;;;;5114665;28;20504;-69
2021/12/21 03:26:11;;;;;;;16.27;10.30;;;-2.90;99.90;;;;;;5166301;27;20049;-70
2021/12/21 03:28:39;;;;;;;12.13;8.98;;;-2.90;99.90;;;;;;5155244;27;20105;-69
2021/12/21 03:31:06;;;;;;;17.88;10.80;;;-2.90;99.90;;;;;;5156331;27;20046;-69
2021/12/21 03:33:34;;;;;;;15.60;9.77;;;-3.00;99.90;;;;;;5155846;27;20106;-70
2021/12/21 03:36:02;;;;;;;13.55;9.70;;;-3.00;99.90;;;;;;5155287;27;20095;-69
2021/12/21 03:38:30;;;;;;;16.13;9.75;;;-3.00;99.90;;;;;;5158337;27;20095;-69
2021/12/21 03:41:02;;;;;;;16.30;11.00;;;-3.00;99.90;;;;;;5168877;27;20050;-70
2021/12/21 03:43:32;;;;;;;19.65;11.35;;;-3.00;99.90;;;;;;5170904;27;20053;-69
2021/12/21 03:46:06;;;;;;;19.80;11.60;;;-3.00;99.90;;;;;;5171195;27;20067;-69
2021/12/21 03:48:33;;;;;;;16.02;10.45;;;-3.10;99.90;;;;;;5162103;27;20440;-70
2021/12/21 03:51:00;;;;;;;18.60;10.88;;;-3.00;99.90;;;;;;5161754;27;20051;-69
2021/12/21 03:53:27;;;;;;;16.85;10.77;;;-3.00;99.90;;;;;;5150673;27;20447;-70
2021/12/21 03:56:04;;;;;;;18.85;10.88;;;-3.00;99.90;;;;;;5138929;27;20046;-69
2021/12/21 03:58:33;;;;;;;17.25;10.35;;;-3.00;99.90;;;;;;5138973;27;20436;-68
2021/12/21 04:01:00;;;;;;;21.38;11.10;;;-3.00;99.90;;;;;;5139152;27;20129;-68
2021/12/21 04:03:26;;;;;;;17.05;10.32;;;-3.10;99.90;;;;;;5138672;27;20039;-68
2021/12/21 04:05:53;;;;;;;16.58;10.93;;;-3.10;99.90;;;;;;5138947;27;20047;-69
2021/12/21 04:08:20;;;;;;;18.25;10.68;;;-3.20;99.90;;;;;;5138716;27;20102;-70
2021/12/21 04:10:47;;;;;;;15.90;10.25;;;-3.20;99.90;;;;;;5138264;27;20107;-69
2021/12/21 04:13:14;;;;;;;18.33;10.77;;;-3.20;99.90;;;;;;5138433;27;20078;-69
2021/12/21 04:15:43;;;;;;;21.77;10.63;;;-3.20;99.90;;;;;;5138793;27;20054;-70
2021/12/21 04:18:11;;;;;;;17.73;11.73;;;-3.20;99.90;;;;;;5137880;27;20057;-70
2021/12/21 04:20:38;;;;;;;19.67;11.60;;;-3.20;99.90;;;;;;5137746;27;20501;-69
2021/12/21 04:23:05;;;;;;;21.15;12.05;;;-3.30;99.90;;;;;;5143649;27;20091;-69
2021/12/21 04:25:33;;;;;;;19.77;11.65;;;-3.20;99.90;;;;;;5159398;27;20110;-69
2021/12/21 04:28:00;;;;;;;19.25;10.55;;;-3.20;99.90;;;;;;5158810;27;20046;-69
2021/12/21 04:30:27;;;;;;;15.88;10.88;;;-3.20;99.90;;;;;;5158513;27;20050;-69
2021/12/21 04:32:56;;;;;;;18.60;10.35;;;-3.30;99.90;;;;;;5177884;27;20045;-69
2021/12/21 04:35:23;;;;;;;22.92;11.00;;;-3.30;99.90;;;;;;5159131;27;20042;-69
2021/12/21 04:37:56;;;;;;;17.73;11.82;;;-3.20;99.90;;;;;;5157937;27;20149;-69
2021/12/21 04:40:35;;;;;;;21.27;11.00;;;-3.20;99.90;;;;;;5158876;27;20054;-69
2021/12/21 04:43:02;;;;;;;14.45;10.25;;;-3.20;99.90;;;;;;5158629;27;20119;-68
2021/12/21 04:45:29;;;;;;;17.77;11.13;;;-3.20;99.90;;;;;;5157616;27;20046;-69
2021/12/21 04:47:57;;;;;;;17.35;9.68;;;-3.20;99.90;;;;;;5158320;27;20046;-72
2021/12/21 04:50:24;;;;;;;20.10;11.30;;;-3.20;99.90;;;;;;5127679;27;20440;-68
2021/12/21 04:52:51;;;;;;;18.98;10.15;;;-2.60;99.90;;;;;;5125332;27;20114;-69
2021/12/21 04:55:18;;;;;;;19.50;10.32;;;-3.10;99.90;;;;;;5124901;27;20054;-68
2021/12/21 04:57:45;;;;;;;14.93;9.00;;;-3.10;99.90;;;;;;5125644;27;20063;-69
2021/12/21 05:00:13;;;;;;;14.75;9.88;;;-3.20;99.90;;;;;;5125565;27;20062;-69
2021/12/21 05:02:40;;;;;;;14.70;9.75;;;-3.20;99.90;;;;;;5126925;27;20103;-69
2021/12/21 05:05:10;;;;;;;14.50;8.95;;;-3.20;99.90;;;;;;5117752;27;20055;-68
2021/12/21 05:07:39;;;;;;;16.45;8.93;;;-3.20;99.90;;;;;;5114842;27;20047;-68
2021/12/21 05:10:10;;;;;;;15.82;9.88;;;-3.20;99.90;;;;;;5120053;27;20195;-69
2021/12/21 05:12:37;;;;;;;14.23;9.82;;;-3.20;99.90;;;;;;5127352;27;20134;-69
2021/12/21 05:15:05;;;;;;;17.25;8.70;;;-3.20;99.90;;;;;;5119966;27;20054;-68
2021/12/21 05:17:33;;;;;;;12.73;9.10;;;-3.20;99.90;;;;;;5132554;27;20146;-68
2021/12/21 05:20:00;;;;;;;13.57;9.32;;;-3.20;99.90;;;;;;5119088;27;20523;-68
2021/12/21 05:22:28;;;;;;;14.25;8.82;;;-3.30;99.90;;;;;;5131933;27;20095;-68
2021/12/21 05:24:55;;;;;;;15.00;9.82;;;-3.30;99.90;;;;;;5134336;27;20062;-68
2021/12/21 05:27:23;;;;;;;14.75;9.07;;;-3.30;99.90;;;;;;5125665;27;20519;-68
2021/12/21 05:29:50;;;;;;;16.10;9.25;;;-3.30;99.90;;;;;;5126347;27;20086;-68
2021/12/21 05:32:17;;;;;;;19.00;8.85;;;-3.30;99.90;;;;;;5121469;27;20047;-67
2021/12/21 05:34:43;;;;;;;20.15;8.90;;;-3.30;99.90;;;;;;5130679;27;20099;-72
2021/12/21 05:37:10;;;;;;;16.60;8.98;;;-3.20;99.90;;;;;;5128358;27;20086;-68
2021/12/21 05:39:50;;;;;;;14.18;8.77;;;-3.20;99.90;;;;;;5127939;27;20104;-68
2021/12/21 05:42:17;;;;;;;11.57;8.60;;;-3.20;99.90;;;;;;5130503;27;20254;-68
2021/12/21 05:44:44;;;;;;;16.27;9.20;;;-3.20;99.90;;;;;;5133026;27;20074;-68
2021/12/21 05:47:11;;;;;;;14.18;8.30;;;-3.30;99.90;;;;;;5126445;27;20521;-68
2021/12/21 05:49:37;;;;;;;12.52;8.20;;;-3.30;99.90;;;;;;5131451;27;20062;-68
2021/12/21 05:52:05;;;;;;;15.10;8.70;;;-3.40;99.90;;;;;;5131114;27;20096;-67
2021/12/21 05:54:32;;;;;;;11.57;8.13;;;-3.40;99.90;;;;;;5137403;27;20091;-66
2021/12/21 05:57:02;;;;;;;12.05;8.10;;;-3.50;99.90;;;;;;5127292;27;20046;-67
2021/12/21 05:59:29;;;;;;;12.65;6.97;;;-3.50;99.90;;;;;;5148720;27;20055;-67
2021/12/21 06:01:56;;;;;;;13.70;7.85;;;-3.60;99.90;;;;;;5128385;27;20118;-67
2021/12/21 06:04:24;;;;;;;12.95;7.78;;;-3.50;99.90;;;;;;5128445;27;20104;-67
2021/12/21 06:06:51;;;;;;;13.50;8.07;;;-3.50;99.90;;;;;;5132929;27;20061;-67
2021/12/21 06:09:18;;;;;;;13.63;7.55;;;-3.50;99.90;;;;;;5125169;27;20051;-67
2021/12/21 06:11:51;;;;;;;13.13;7.95;;;-3.50;99.90;;;;;;5132985;27;20077;-67
2021/12/21 06:14:37;;;;;;;15.18;7.18;;;-3.50;99.90;;;;;;5128915;27;20046;-66
2021/12/21 06:25:36;;;;;;;16.13;8.02;;;-3.50;99.90;;;;;;5127924;27;20178;-67
2021/12/21 06:28:03;;;;;;;13.38;6.63;;;-3.50;99.90;;;;;;5135154;27;20046;-66
2021/12/21 06:30:32;;;;;;;8.68;6.53;;;-3.40;99.90;;;;;;5132049;27;20114;-66
2021/12/21 06:33:00;;;;;;;13.50;7.20;;;-3.40;99.90;;;;;;5130950;27;20087;-66
2021/12/21 06:35:27;;;;;;;11.93;7.50;;;-3.40;99.90;;;;;;5130817;27;20546;-67
2021/12/21 06:37:54;;;;;;;11.43;7.63;;;-3.40;99.90;;;;;;5148723;27;20091;-66
2021/12/21 06:40:22;;;;;;;13.38;7.57;;;-3.40;99.90;;;;;;5132373;27;20046;-66
2021/12/21 06:42:51;;;;;;;12.65;6.65;;;-3.40;99.90;;;;;;5127768;27;20417;-66
2021/12/21 06:45:29;;;;;;;12.57;7.45;;;-3.40;99.90;;;;;;5124137;27;20043;-66
2021/12/21 06:53:28;;;;;;;18.77;8.15;;;-3.40;99.90;;;;;;5129821;27;20045;-67
2021/12/21 06:55:55;;;;;;;11.45;7.47;;;-3.40;99.90;;;;;;5131443;27;20039;-67
2021/12/21 06:58:22;;;;;;;14.05;8.80;;;-3.40;99.90;;;;;;5129471;27;20050;-68
2021/12/21 07:00:52;;;;;;;11.90;7.90;;;-3.40;99.90;;;;;;5130198;27;20103;-67
2021/12/21 07:03:21;;;;;;;16.83;8.80;;;-3.40;99.90;;;;;;5130805;27;20047;-67
2021/12/21 07:05:49;;;;;;;16.38;8.57;;;-3.40;99.90;;;;;;5131044;27;20039;-67
2021/12/21 07:08:20;;;;;;;15.23;8.88;;;-3.40;99.90;;;;;;5129265;27;20078;-67
2021/12/21 07:10:54;;;;;;;11.57;8.02;;;-3.40;99.90;;;;;;5128183;27;20047;-67
2021/12/21 07:18:52;;;;;;;16.50;8.02;;;-3.40;99.90;;;;;;5149818;27;20042;-67
2021/12/21 07:21:19;;;;;;;12.93;8.23;;;-3.40;99.90;;;;;;5138597;27;20106;-67
2021/12/21 07:23:46;;;;;;;15.57;8.52;;;-3.40;99.90;;;;;;5151922;27;20113;-67
2021/12/21 07:26:13;;;;;;;11.63;7.72;;;-3.50;99.90;;;;;;5137235;27;20112;-67
2021/12/21 07:28:40;;;;;;;16.70;7.32;;;-3.40;99.90;;;;;;5151486;27;20050;-67
2021/12/21 07:31:07;;;;;;;14.85;8.65;;;-3.40;99.90;;;;;;5138965;27;20086;-67
2021/12/21 07:33:34;;;;;;;11.52;7.90;;;-3.50;99.90;;;;;;5156877;27;20047;-68
2021/12/21 07:36:03;;;;;;;12.60;7.63;;;-3.10;99.90;;;;;;5138794;27;20099;-67
2021/12/21 07:38:32;;;;;;;12.10;7.40;;;-3.50;99.90;;;;;;5138436;27;20047;-68
2021/12/21 07:40:59;;;;;;;13.27;7.68;;;-3.50;99.90;;;;;;5138517;27;20390;-67
2021/12/21 07:43:26;;;;;;;12.40;7.55;;;-3.50;99.90;;;;;;5149704;27;20526;-68
2021/12/21 07:45:53;;;;;;;17.27;8.90;;;-3.50;99.90;;;;;;5159672;27;20058;-68
2021/12/21 07:48:20;;;;;;;12.73;8.75;;;-3.50;99.90;;;;;;5159466;27;20050;-67
2021/12/21 07:50:48;;;;;;;12.23;7.72;;;-3.50;99.90;;;;;;5159669;27;20046;-67
2021/12/21 07:53:17;;;;;;;14.90;8.95;;;-3.40;99.90;;;;;;5144672;27;20034;-67
2021/12/21 07:55:44;;;;;;;11.15;7.90;;;-3.40;99.90;;;;;;5149743;27;20043;-67
2021/12/21 07:58:12;;;;;;;14.90;8.55;;;-3.40;99.90;;;;;;5133722;27;20502;-67
2021/12/21 08:00:39;;;;;;;12.80;7.78;;;-3.40;99.90;;;;;;5118033;27;20054;-68
2021/12/21 08:03:07;;;;;;;13.73;8.43;;;-3.30;99.90;;;;;;5155026;27;20054;-68
2021/12/21 08:05:34;;;;;;;12.23;7.85;;;-3.20;99.90;;;;;;5156335;27;20050;-68
2021/12/21 08:08:11;;;;;;;13.30;8.00;;;-3.20;99.90;;;;;;5135367;27;20061;-68
2021/12/21 08:10:45;;;;;;;13.40;8.10;;;-3.10;99.90;;;;;;5134724;27;20430;-68
2021/12/21 08:13:12;;;;;;;14.88;8.20;;;-3.10;99.90;;;;;;5121590;27;20038;-68
2021/12/21 08:15:40;;;;;;;15.82;7.78;;;-3.10;99.90;;;;;;5137496;27;20059;-68
2021/12/21 08:18:07;;;;;;;12.27;7.97;;;-3.00;99.90;;;;;;5126187;27;20116;-66
2021/12/21 08:20:34;;;;;;;12.88;7.47;;;-2.80;99.90;;;;;;5124870;27;20111;-69
2021/12/21 08:23:01;;;;;;;12.38;8.07;;;-2.30;99.90;;;;;;5129570;27;20368;-67
2021/12/21 08:25:28;;;;;;;15.07;8.27;;;-1.60;99.90;;;;;;5132025;27;20042;-68
2021/12/21 08:27:59;;;;;;;11.90;7.75;;;-0.70;99.90;;;;;;5128916;27;20047;-68
2021/12/21 08:30:28;;;;;;;11.07;7.70;;;0.10;99.90;;;;;;5131828;27;20106;-68
2021/12/21 08:32:56;;;;;;;16.80;9.13;;;1.10;99.90;;;;;;5132177;27;20069;-68
2021/12/21 08:35:23;;;;;;;15.57;8.32;;;1.90;99.90;;;;;;5134257;27;20140;-68
2021/12/21 08:37:52;;;;;;;14.73;7.88;;;2.70;99.90;;;;;;5134003;27;20062;-69
2021/12/21 08:40:20;;;;;;;14.45;8.25;;;3.30;99.90;;;;;;5129114;27;20050;-69
2021/12/21 08:42:49;;;;;;;14.15;7.00;;;4.00;99.90;;;;;;5129138;27;20057;-69
2021/12/21 08:45:18;;;;;;;15.75;8.40;;;5.40;99.90;;;;;;5129267;27;20047;-69
2021/12/21 08:47:45;;;;;;;13.10;7.28;;;5.00;99.90;;;;;;5135079;27;20043;-69
2021/12/21 08:50:15;;;;;;;10.45;6.63;;;5.40;99.90;;;;;;5130687;27;20139;-69
2021/12/21 08:52:42;;;;;;;10.02;6.97;;;5.90;99.90;;;;;;5133868;27;20143;-69
2021/12/21 08:55:11;;;;;;;10.82;6.78;;;6.40;99.90;;;;;;5132480;27;20551;-69
2021/12/21 08:57:38;;;;;;;9.15;6.07;;;6.50;99.90;;;;;;5133438;27;20255;-69
2021/12/21 09:00:08;;;;;;;12.38;6.43;;;6.70;99.90;;;;;;5125525;27;20058;-70
2021/12/21 09:02:38;;;;;;;9.27;5.63;;;7.20;99.90;;;;;;5137872;27;20099;-70
2021/12/21 09:05:11;;;;;;;12.80;7.30;;;7.80;99.90;;;;;;5137374;27;20050;-70
2021/12/21 09:07:38;;;;;;;9.30;6.22;;;7.90;99.90;;;;;;5153443;27;20102;-70
2021/12/21 09:10:06;;;;;;;12.10;6.50;;;8.20;99.90;;;;;;5158023;27;20122;-70
2021/12/21 09:12:33;;;;;;;12.15;7.07;;;8.30;99.90;;;;;;5157430;27;20050;-70
2021/12/21 09:15:00;;;;;;;12.60;6.78;;;8.70;99.90;;;;;;5158348;27;20470;-71
2021/12/21 09:17:28;;;;;;;9.00;6.20;;;8.60;99.90;;;;;;5158244;27;20529;-71
2021/12/21 09:19:56;;;;;;;11.02;7.03;;;9.00;99.90;;;;;;5157597;27;20102;-71
2021/12/21 09:22:23;;;;;;;11.52;7.13;;;9.30;99.90;;;;;;5149026;27;20475;-70
2021/12/21 09:24:50;;;;;;;8.35;6.35;;;9.60;99.90;;;;;;5148895;27;20100;-70
2021/12/21 09:27:17;;;;;;;9.73;6.43;;;9.80;99.90;;;;;;5157249;27;20103;-70
2021/12/21 09:29:45;;;;;;;8.10;6.18;;;10.20;99.90;;;;;;5146242;27;20050;-71
2021/12/21 09:32:15;;;;;;;12.27;5.35;;;10.60;98.70;;;;;;5147029;27;20080;-71
2021/12/21 09:34:42;;;;;;;8.75;5.47;;;11.00;98.40;;;;;;5140069;27;20389;-70
2021/12/21 09:37:15;;;;;;;9.43;6.18;;;11.10;96.80;;;;;;5137632;27;20115;-69
2021/12/21 09:39:42;;;;;;;9.95;6.20;;;10.90;94.20;;;;;;5137244;27;20457;-70
2021/12/21 09:42:09;;;;;;;12.85;6.32;;;11.60;95.60;;;;;;5152373;27;20062;-69
2021/12/21 09:44:36;;;;;;;10.68;6.97;;;12.00;95.20;;;;;;5146902;27;20043;-69
2021/12/21 09:47:06;;;;;;;12.07;7.55;;;11.80;93.90;;;;;;5118380;27;20059;-69
2021/12/21 09:49:33;;;;;;;11.07;7.10;;;12.00;91.90;;;;;;5127225;27;20050;-70
2021/12/21 09:51:59;;;;;;;12.48;7.38;;;12.10;92.00;;;;;;5122459;27;20122;-70
2021/12/21 09:54:28;;;;;;;10.32;5.60;;;12.30;91.50;;;;;;5153751;27;20052;-71
2021/12/21 09:56:55;;;;;;;10.15;6.13;;;12.40;87.30;;;;;;5133916;27;20436;-71
2021/12/21 09:59:22;;;;;;;8.07;5.05;;;12.50;87.30;;;;;;5133571;27;20061;-70
2021/12/21 10:01:49;;;;;;;11.93;6.28;;;12.60;88.50;;;;;;5132457;27;20062;-71
2021/12/21 10:04:17;;;;;;;11.15;6.68;;;12.60;88.70;;;;;;5130800;27;20119;-71
2021/12/21 10:06:47;;;;;;;12.85;6.10;;;12.90;85.60;;;;;;5135082;27;20050;-71
2021/12/21 10:09:14;;;;;;;8.77;5.13;;;12.90;84.30;;;;;;5133183;27;20102;-71
2021/12/21 10:11:48;;;;;;;10.20;5.20;;;13.10;83.60;;;;;;5133012;27;20115;-71
2021/12/21 10:14:16;;;;;;;17.10;5.95;;;13.30;83.00;;;;;;5134697;27;20042;-71
2021/12/21 10:16:44;;;;;;;12.10;5.20;;;13.80;84.30;;;;;;5130201;27;20054;-71
2021/12/21 10:19:20;;;;;;;7.28;5.07;;;13.80;79.20;;;;;;5131377;27;20494;-71
2021/12/21 10:21:47;;;;;;;9.70;5.55;;;13.70;76.60;;;;;;5134726;27;20099;-71
2021/12/21 10:24:23;;;;;;;9.75;5.40;;;13.60;80.50;;;;;;5132959;27;20402;-71
2021/12/21 10:26:52;;;;;;;11.23;6.35;;;13.70;76.60;;;;;;5128446;27;20047;-71
2021/12/21 10:29:19;;;;;;;9.20;5.53;;;13.60;75.90;;;;;;5131963;27;20055;-71
2021/12/21 10:31:48;;;;;;;7.75;5.10;;;14.10;79.00;;;;;;5129810;27;20054;-71
2021/12/21 10:34:17;;;;;;;9.35;5.53;;;14.30;74.50;;;;;;5126732;27;20051;-73
2021/12/21 10:36:45;;;;;;;8.15;5.47;;;14.10;77.70;;;;;;5126898;27;20178;-72
2021/12/21 10:39:20;;;;;;;9.68;5.55;;;14.70;75.30;;;;;;5129678;27;20042;-71
2021/12/21 10:41:47;;;;;;;7.60;5.20;;;14.70;70.30;;;;;;5128147;27;20092;-72
2021/12/21 10:44:17;;;;;;;7.95;5.10;;;14.40;74.00;;;;;;5130894;27;20072;-71
2021/12/21 10:46:46;;;;;;;10.97;5.23;;;14.20;73.10;;;;;;5131769;27;20074;-71
2021/12/21 10:49:16;;;;;;;10.23;5.13;;;14.60;71.90;;;;;;5126451;27;20120;-72
2021/12/21 10:51:52;;;;;;;8.52;4.88;;;14.80;70.10;;;;;;5128981;27;20047;-72
2021/12/21 10:54:27;;;;;;;8.48;5.10;;;14.60;70.30;;;;;;5134063;27;20114;-72
2021/12/21 10:56:57;;;;;;;7.60;4.45;;;14.60;71.50;;;;;;5132609;27;20065;-72
2021/12/21 10:59:31;;;;;;;10.75;5.28;;;14.80;67.30;;;;;;5134152;27;20137;-72
2021/12/21 11:02:07;;;;;;;13.02;5.32;;;14.90;68.20;;;;;;5136645;27;20065;-70
2021/12/21 11:04:38;;;;;;;8.00;4.88;;;15.10;68.50;;;;;;5135975;27;20051;-71
2021/12/21 11:07:22;;;;;;;7.80;4.60;;;14.80;68.70;;;;;;5136930;27;20072;-73
2021/12/21 11:09:55;;;;;;;9.75;4.68;;;15.60;67.90;;;;;;5137305;27;20053;-73
2021/12/21 11:12:23;;;;;;;7.15;4.50;;;15.80;65.70;;;;;;5136825;27;20440;-72
2021/12/21 11:14:51;;;;;;;8.32;4.45;;;15.60;67.10;;;;;;5136659;27;20051;-72
2021/12/21 11:17:19;;;;;;;10.77;4.78;;;16.10;66.50;;;;;;5155083;27;20435;-73
2021/12/21 11:19:46;;;;;;;6.32;4.00;;;15.80;67.10;;;;;;5136549;27;20111;-73
2021/12/21 11:22:14;;;;;;;7.22;4.60;;;15.60;63.30;;;;;;5135443;27;20115;-73
2021/12/21 11:24:43;;;;;;;7.97;4.05;;;15.60;63.80;;;;;;5154245;27;20116;-72
2021/12/21 11:27:13;;;;;;;8.85;4.38;;;15.40;65.60;;;;;;5134656;27;20058;-73
2021/12/21 11:29:41;;;;;;;8.50;4.18;;;16.10;65.00;;;;;;5141526;27;20146;-73
2021/12/21 11:32:12;;;;;;;7.75;4.47;;;16.50;64.20;;;;;;5123561;28;20479;-73
2021/12/21 11:34:58;;;;;;;7.57;4.40;;;16.20;62.80;;;;;;5118224;27;20487;-72
2021/12/21 11:37:27;;;;;;;9.25;3.97;;;16.10;62.60;;;;;;5132804;27;20047;-73
2021/12/21 11:39:55;;;;;;;6.90;3.97;;;16.20;64.10;;;;;;5132794;27;20050;-73
2021/12/21 11:42:31;;;;;;;6.47;3.95;;;16.20;63.50;;;;;;5129536;27;20520;-72
2021/12/21 11:45:07;;;;;;;8.52;3.97;;;16.00;62.40;;;;;;5130058;27;20050;-73
2021/12/21 11:47:41;;;;;;;7.78;4.13;;;16.10;61.30;;;;;;5128614;27;20070;-72
2021/12/21 11:50:10;;;;;;;8.02;3.92;;;16.10;62.80;;;;;;5133061;27;20435;-72
2021/12/21 11:52:45;;;;;;;7.22;4.20;;;15.90;62.50;;;;;;5128792;27;20099;-72
2021/12/21 11:55:13;;;;;;;6.25;3.80;;;16.00;60.60;;;;;;5127652;27;20039;-73
2021/12/21 11:57:42;;;;;;;7.40;3.92;;;16.10;62.00;;;;;;5131525;27;20054;-74
2021/12/21 12:00:12;;;;;;;7.18;4.10;;;16.90;60.50;;;;;;5127772;27;20082;-72
2021/12/21 12:02:41;;;;;;;11.38;4.10;;;16.40;60.40;;;;;;5150428;27;20047;-72
2021/12/21 12:05:21;;;;;;;6.38;3.70;;;16.80;60.80;;;;;;5135510;27;20166;-72
2021/12/21 12:08:00;;;;;;;6.85;3.40;;;16.60;61.10;;;;;;5134383;27;20447;-73
2021/12/21 12:10:27;;;;;;;7.55;3.67;;;16.60;58.50;;;;;;5132198;27;20513;-71
2021/12/21 12:12:54;;;;;;;7.28;3.97;;;16.10;60.20;;;;;;5133758;27;20111;-73
2021/12/21 12:15:21;;;;;;;6.28;3.90;;;16.00;60.10;;;;;;5133348;27;20092;-73
2021/12/21 12:17:52;;;;;;;6.03;3.67;;;16.40;60.70;;;;;;5134292;27;20062;-72
2021/12/21 12:20:26;;;;;;;;;;;16.80;59.60;;;;;;5134032;27;20074;-72
2021/12/21 12:23:04;;;;;;;7.65;4.22;;;16.80;57.00;;;;;;5132244;27;20432;-73
2021/12/21 12:25:31;;;;;;;8.98;4.10;;;16.90;57.60;;;;;;5133385;27;20118;-73
2021/12/21 12:27:58;;;;;;;7.10;4.07;;;16.40;59.20;;;;;;5134748;27;20055;-72
2021/12/21 12:30:26;;;;;;;8.38;4.20;;;16.70;58.40;;;;;;5133187;27;20046;-73
2021/12/21 12:33:00;;;;;;;7.18;3.65;;;16.30;59.70;;;;;;5132070;27;20054;-72
2021/12/21 12:35:29;;;;;;;7.78;4.28;;;16.70;58.70;;;;;;5134738;27;20038;-72
2021/12/21 12:37:58;;;;;;;6.67;4.13;;;16.80;58.70;;;;;;5132356;27;20054;-71
2021/12/21 12:40:28;;;;;;;6.47;3.88;;;17.40;57.80;;;;;;5136323;27;20055;-73
2021/12/21 12:42:58;;;;;;;7.70;4.20;;;17.30;57.40;;;;;;5136494;27;20058;-72
2021/12/21 12:45:33;;;;;;;7.50;4.40;;;17.30;58.10;;;;;;5155091;27;20118;-72
2021/12/21 12:48:03;;;;;;;5.95;3.80;;;16.50;58.70;;;;;;5158554;27;20129;-73
2021/12/21 12:50:32;;;;;;;7.07;3.95;;;16.70;59.20;;;;;;5157737;27;20447;-72
2021/12/21 12:53:01;;;;;;;6.15;3.72;;;16.60;59.40;;;;;;5158566;27;20056;-72
2021/12/21 12:55:38;;;;;;;7.43;4.22;;;16.70;58.00;;;;;;5158149;27;20046;-72
2021/12/21 12:58:13;;;;;;;9.05;4.03;;;17.00;58.10;;;;;;5158184;27;20113;-70
2021/12/21 13:00:43;;;;;;;7.05;3.90;;;16.50;58.90;;;;;;5177063;27;20054;-71
2021/12/21 13:03:14;;;;;;;6.80;4.18;;;16.80;58.40;;;;;;5158530;27;20405;-72
2021/12/21 13:05:52;;;;;;;5.90;4.00;;;16.70;57.10;;;;;;5157745;27;20106;-72
2021/12/21 13:08:21;;;;;;;7.50;4.30;;;16.60;57.20;;;;;;5157902;27;20042;-72
2021/12/21 13:10:50;;;;;;;6.95;4.22;;;16.70;58.30;;;;;;5139767;27;20134;-72
2021/12/21 13:13:17;;;;;;;7.63;3.83;;;16.40;56.90;;;;;;5137169;27;20047;-72
2021/12/21 13:15:47;;;;;;;7.72;3.95;;;16.70;57.80;;;;;;5137507;27;20111;-73
2021/12/21 13:18:17;;;;;;;7.53;3.95;;;16.60;57.50;;;;;;5136890;27;20634;-72
2021/12/21 13:20:45;;;;;;;;;;;16.30;57.30;;;;;;5156670;27;20089;-72